Time;durP1;ratioP1;P1;durP2;ratioP2;P2;SDS_P1;SDS_P2;PMS_P1;PMS_P2;Temp;Humidity;BMP_temperature;BMP_pressure;BME280_temperature;BME280_humidity;BME280_pressure;Samples;Min_cycle;Max_cycle;Signal;HPM_P1;HPM_P2
2022/08/20 00:02:16;;;;;;;1.25;1.25;;;16.90;99.90;;;;;;8291430;28;20052;-82
2022/08/20 00:06:20;;;;;;;0.43;0.43;;;16.90;99.90;;;;;;8309587;28;20052;-81
2022/08/20 00:10:22;;;;;;;0.10;0.10;;;17.10;99.90;;;;;;8299775;28;20033;-80
2022/08/20 00:14:22;;;;;;;0.20;0.20;;;17.00;99.90;;;;;;8293752;28;20037;-81
2022/08/20 00:18:23;;;;;;;0.10;0.10;;;16.90;99.90;;;;;;8290374;28;20022;-82
2022/08/20 00:22:27;;;;;;;0.15;0.15;;;16.90;99.90;;;;;;8288823;28;20026;-80
2022/08/20 00:26:27;;;;;;;0.10;0.10;;;16.80;99.90;;;;;;8292559;28;20064;-80
2022/08/20 00:30:30;;;;;;;0.20;0.20;;;16.80;99.90;;;;;;8306390;28;20065;-82
2022/08/20 00:34:31;;;;;;;0.20;0.20;;;16.80;99.90;;;;;;8294448;28;20037;-81
2022/08/20 00:38:33;;;;;;;0.90;0.90;;;16.90;99.90;;;;;;8305983;28;20156;-82
2022/08/20 00:43:01;;;;;;;3.78;1.27;;;16.90;99.90;;;;;;8316363;28;20025;-80
2022/08/20 00:47:03;;;;;;;1.38;1.27;;;16.90;99.90;;;;;;8301734;28;20048;-79
2022/08/20 00:51:32;;;;;;;0.40;0.40;;;16.90;99.90;;;;;;8317135;28;20013;-81
2022/08/20 00:55:34;;;;;;;0.20;0.20;;;16.80;99.90;;;;;;8291402;28;20041;-79
2022/08/20 00:59:38;;;;;;;0.15;0.15;;;16.80;99.90;;;;;;8302829;28;20034;-81
2022/08/20 01:03:41;;;;;;;0.20;0.20;;;16.80;99.90;;;;;;8307851;28;20151;-80
2022/08/20 01:07:43;;;;;;;0.65;0.65;;;16.90;99.90;;;;;;8306148;28;20407;-82
2022/08/20 01:11:44;;;;;;;0.25;0.25;;;16.90;99.90;;;;;;8312875;28;20021;-82
2022/08/20 01:15:48;;;;;;;0.05;0.05;;;16.90;99.90;;;;;;8299531;28;20032;-80
2022/08/20 01:20:06;;;;;;;1.08;0.88;;;16.80;99.90;;;;;;8285981;28;20030;-80
2022/08/20 01:24:16;;;;;;;0.77;0.77;;;16.80;99.90;;;;;;8287240;28;20028;-82
2022/08/20 01:28:22;;;;;;;1.50;1.00;;;16.90;99.90;;;;;;8310850;28;20049;-80
2022/08/20 01:32:23;;;;;;;0.80;0.52;;;16.80;99.90;;;;;;8287310;28;20509;-81
2022/08/20 01:36:30;;;;;;;0.40;0.40;;;16.90;99.90;;;;;;8307978;28;20026;-81
2022/08/20 01:40:46;;;;;;;0.28;0.28;;;17.00;99.90;;;;;;8298184;28;20034;-81
2022/08/20 01:44:48;;;;;;;0.10;0.10;;;16.80;99.90;;;;;;8307244;28;20045;-82
2022/08/20 01:48:49;;;;;;;0.10;0.10;;;16.70;99.90;;;;;;8321862;28;20032;-80
2022/08/20 01:53:07;;;;;;;0.28;0.28;;;16.80;99.90;;;;;;8302649;28;20026;-81
2022/08/20 01:57:17;;;;;;;0.20;0.20;;;16.80;99.90;;;;;;8316119;28;20025;-82
2022/08/20 02:01:23;;;;;;;0.15;0.15;;;16.60;99.90;;;;;;8288970;28;20056;-82
2022/08/20 02:05:23;;;;;;;0.25;0.25;;;16.60;99.90;;;;;;8319209;28;20077;-81
2022/08/20 02:09:31;;;;;;;0.47;0.47;;;16.60;99.90;;;;;;8298872;28;20502;-80
2022/08/20 02:13:31;;;;;;;0.65;0.65;;;16.60;99.90;;;;;;8296854;28;20574;-80
2022/08/20 02:17:32;;;;;;;0.00;0.00;;;16.70;99.90;;;;;;8309865;28;20113;-81
2022/08/20 02:21:33;;;;;;;0.50;0.50;;;16.50;99.90;;;;;;8292661;28;20517;-79
2022/08/20 02:25:36;;;;;;;0.03;0.03;;;16.60;99.90;;;;;;8293273;28;20030;-81
2022/08/20 02:29:36;;;;;;;0.00;0.00;;;16.60;99.90;;;;;;8292630;28;20029;-82
2022/08/20 02:33:37;;;;;;;0.47;0.47;;;16.60;99.90;;;;;;8306232;28;20034;-81
2022/08/20 02:37:40;;;;;;;0.05;0.05;;;16.80;99.90;;;;;;8304811;28;20029;-82
2022/08/20 02:41:41;;;;;;;0.73;0.73;;;16.70;99.90;;;;;;8292622;28;20034;-81
2022/08/20 02:45:42;;;;;;;0.43;0.43;;;16.50;99.90;;;;;;8314030;28;20029;-81
2022/08/20 02:49:43;;;;;;;1.35;0.75;;;16.60;99.90;;;;;;8292369;28;20514;-83
2022/08/20 02:53:43;;;;;;;0.10;0.10;;;16.60;99.90;;;;;;8310460;28;20022;-81
2022/08/20 02:57:44;;;;;;;0.15;0.15;;;16.50;99.90;;;;;;8302176;28;20030;-82
2022/08/20 03:01:45;;;;;;;0.25;0.25;;;16.60;99.90;;;;;;8315262;28;20030;-83
2022/08/20 03:05:45;;;;;;;0.17;0.17;;;16.50;99.90;;;;;;8313589;28;20036;-82
2022/08/20 03:09:46;;;;;;;0.10;0.10;;;16.50;99.90;;;;;;8315577;28;20025;-83
2022/08/20 03:13:46;;;;;;;0.20;0.20;;;16.60;99.90;;;;;;8322131;28;20033;-83
2022/08/20 03:17:47;;;;;;;0.10;0.10;;;16.50;99.90;;;;;;8293267;28;20036;-83
2022/08/20 03:21:48;;;;;;;0.10;0.10;;;16.40;99.90;;;;;;8317677;28;20525;-83
2022/08/20 03:25:49;;;;;;;0.38;0.38;;;16.50;99.90;;;;;;8299230;28;20120;-83
2022/08/20 03:29:50;;;;;;;0.10;0.10;;;16.50;99.90;;;;;;8329806;28;20407;-82
2022/08/20 03:33:50;;;;;;;0.10;0.10;;;16.40;99.90;;;;;;8306426;28;20033;-83
2022/08/20 03:37:51;;;;;;;1.40;1.30;;;16.40;99.90;;;;;;8293048;28;20557;-83
2022/08/20 03:41:51;;;;;;;0.22;0.22;;;16.40;99.90;;;;;;8303211;28;20025;-83
2022/08/20 03:45:52;;;;;;;0.00;0.00;;;16.50;99.90;;;;;;8314209;28;21292;-82
2022/08/20 03:49:58;;;;;;;0.20;0.20;;;16.40;99.90;;;;;;8308732;28;20100;-83
2022/08/20 03:53:58;;;;;;;0.10;0.10;;;16.20;99.90;;;;;;8321588;28;20402;-82
2022/08/20 03:58:02;;;;;;;0.30;0.30;;;16.30;99.90;;;;;;8300309;28;20033;-81
2022/08/20 04:02:04;;;;;;;2.13;2.03;;;16.20;99.90;;;;;;8292782;28;20030;-82
2022/08/20 04:06:04;;;;;;;0.10;0.10;;;16.00;99.90;;;;;;8319807;28;20079;-83
2022/08/20 04:10:08;;;;;;;0.10;0.10;;;16.00;99.90;;;;;;8303924;28;20371;-82
2022/08/20 04:14:10;;;;;;;0.10;0.10;;;16.00;99.90;;;;;;8298291;28;20017;-82
2022/08/20 04:18:12;;;;;;;0.38;0.38;;;16.00;99.90;;;;;;8302517;28;20021;-83
2022/08/20 04:22:13;;;;;;;0.10;0.10;;;16.10;99.90;;;;;;8292397;28;20032;-83
2022/08/20 04:26:15;;;;;;;0.08;0.08;;;15.90;99.90;;;;;;8317107;28;20511;-82
2022/08/20 04:30:18;;;;;;;0.05;0.05;;;15.90;99.90;;;;;;8326035;28;20056;-82
2022/08/20 04:34:19;;;;;;;1.55;0.82;;;16.00;99.90;;;;;;8297010;28;20522;-83
2022/08/20 04:38:21;;;;;;;0.10;0.10;;;16.00;99.90;;;;;;8320589;28;20018;-83
2022/08/20 04:42:22;;;;;;;0.50;0.50;;;15.90;99.90;;;;;;8280903;28;20022;-83
2022/08/20 04:46:26;;;;;;;0.10;0.10;;;15.80;99.90;;;;;;8289254;28;20551;-84
2022/08/20 04:50:26;;;;;;;1.05;1.00;;;15.90;99.90;;;;;;8298804;28;20101;-83
2022/08/20 04:54:27;;;;;;;0.10;0.10;;;15.90;99.90;;;;;;8311789;28;20013;-83
2022/08/20 04:58:32;;;;;;;0.10;0.10;;;15.80;99.90;;;;;;8301545;28;20029;-83
2022/08/20 05:02:34;;;;;;;0.20;0.20;;;15.70;99.90;;;;;;8308116;28;20547;-83
2022/08/20 05:06:35;;;;;;;0.10;0.10;;;15.60;99.90;;;;;;8306188;28;20021;-83
2022/08/20 05:10:37;;;;;;;0.20;0.20;;;15.80;99.90;;;;;;8288295;28;20034;-82
2022/08/20 05:14:37;;;;;;;0.40;0.40;;;15.70;99.90;;;;;;8319114;28;20041;-83
2022/08/20 05:18:38;;;;;;;0.10;0.10;;;15.60;99.90;;;;;;8310258;28;20483;-83
2022/08/20 05:22:38;;;;;;;0.13;0.13;;;15.70;99.90;;;;;;8298579;28;20034;-83
2022/08/20 05:26:39;;;;;;;0.47;0.47;;;15.90;99.90;;;;;;8317538;28;20446;-82
2022/08/20 05:30:42;;;;;;;0.88;0.88;;;16.20;99.90;;;;;;8312621;28;20087;-82
2022/08/20 05:35:01;;;;;;;0.20;0.20;;;16.30;99.90;;;;;;8331546;23;20049;-85
2022/08/20 05:39:02;;;;;;;0.10;0.10;;;16.30;99.90;;;;;;8282514;28;20045;-85
2022/08/20 05:43:18;;;;;;;0.13;0.13;;;16.30;99.90;;;;;;8308984;28;20022;-85
2022/08/20 05:47:19;;;;;;;0.68;0.35;;;16.20;99.90;;;;;;8302912;28;20025;-84
2022/08/20 05:51:27;;;;;;;0.00;0.00;;;16.30;99.90;;;;;;8306149;28;20549;-84
2022/08/20 05:55:40;;;;;;;0.10;0.10;;;16.30;99.90;;;;;;8294502;28;20064;-85
2022/08/20 05:59:47;;;;;;;0.20;0.20;;;16.10;99.90;;;;;;8305881;28;20021;-85
2022/08/20 06:08:13;;;;;;;0.10;0.10;;;16.50;99.90;;;;;;8309954;28;20181;-85
2022/08/20 06:12:15;;;;;;;0.20;0.20;;;16.40;99.90;;;;;;8296212;28;20026;-84
2022/08/20 06:16:16;;;;;;;0.10;0.10;;;16.40;99.90;;;;;;8294132;28;20108;-84
2022/08/20 06:20:16;;;;;;;0.00;0.00;;;16.40;99.90;;;;;;8313684;28;20048;-85
2022/08/20 06:24:17;;;;;;;0.00;0.00;;;16.50;99.90;;;;;;8317850;28;20018;-84
2022/08/20 06:28:18;;;;;;;0.20;0.20;;;16.60;99.90;;;;;;8299841;28;20041;-85
2022/08/20 06:32:21;;;;;;;0.13;0.13;;;16.80;99.90;;;;;;8312646;28;20111;-84
2022/08/20 06:36:22;;;;;;;0.10;0.10;;;16.70;99.90;;;;;;8275139;28;20258;-84
2022/08/20 06:40:27;;;;;;;2.25;1.00;;;16.90;99.90;;;;;;8267608;28;20030;-84
2022/08/20 06:44:27;;;;;;;0.10;0.10;;;17.00;99.90;;;;;;8315913;28;20391;-84
2022/08/20 06:48:28;;;;;;;0.10;0.10;;;16.70;99.90;;;;;;8300873;28;20129;-84
2022/08/20 06:52:28;;;;;;;0.43;0.43;;;16.90;99.90;;;;;;8312365;28;20025;-84
2022/08/20 06:56:30;;;;;;;0.10;0.10;;;17.00;99.90;;;;;;8291543;28;20034;-85
2022/08/20 07:00:32;;;;;;;0.10;0.10;;;17.40;99.90;;;;;;8297169;28;20034;-84
2022/08/20 07:04:32;;;;;;;0.17;0.17;;;17.50;99.90;;;;;;8286436;28;20121;-84
2022/08/20 07:08:34;;;;;;;0.43;0.43;;;17.60;99.90;;;;;;8289677;28;20036;-84
2022/08/20 07:12:35;;;;;;;0.10;0.10;;;17.50;99.90;;;;;;8299754;28;20025;-84
2022/08/20 07:16:35;;;;;;;0.00;0.00;;;17.80;99.90;;;;;;8282683;28;20076;-84
2022/08/20 07:20:37;;;;;;;0.20;0.20;;;18.30;99.90;;;;;;8313091;28;20510;-84
2022/08/20 07:24:37;;;;;;;0.10;0.10;;;18.90;99.90;;;;;;8301429;28;20027;-84
2022/08/20 07:28:38;;;;;;;0.10;0.10;;;19.40;99.90;;;;;;8283541;28;20479;-84
2022/08/20 07:32:38;;;;;;;0.00;0.00;;;20.10;99.90;;;;;;8275235;28;20033;-85
2022/08/20 07:36:39;;;;;;;0.10;0.10;;;20.30;99.90;;;;;;8312465;28;20065;-84
2022/08/20 07:40:41;;;;;;;0.10;0.10;;;20.80;99.90;;;;;;8319449;28;20032;-82
2022/08/20 07:44:41;;;;;;;0.10;0.10;;;21.10;99.90;;;;;;8292779;28;20072;-84
2022/08/20 07:48:45;;;;;;;0.10;0.10;;;21.60;99.90;;;;;;8303493;28;20232;-83
2022/08/20 07:52:46;;;;;;;0.10;0.10;;;22.10;99.90;;;;;;8310039;28;20029;-84
2022/08/20 07:56:47;;;;;;;1.02;0.95;;;22.50;99.90;;;;;;8311123;28;20104;-83
2022/08/20 08:00:48;;;;;;;0.10;0.10;;;22.30;99.90;;;;;;8299356;28;20026;-84
2022/08/20 08:04:48;;;;;;;0.30;0.30;;;22.60;99.90;;;;;;8301273;28;20068;-83
2022/08/20 08:08:49;;;;;;;0.20;0.20;;;22.50;99.90;;;;;;8276572;28;20018;-82
2022/08/20 08:12:54;;;;;;;0.10;0.10;;;22.70;99.90;;;;;;8292068;28;20101;-80
2022/08/20 08:16:57;;;;;;;0.00;0.00;;;23.40;99.90;;;;;;8289239;28;20028;-80
2022/08/20 08:20:58;;;;;;;0.00;0.00;;;23.50;99.90;;;;;;8301182;28;20167;-81
2022/08/20 08:25:01;;;;;;;0.00;0.00;;;23.90;99.90;;;;;;8304150;28;20029;-81
2022/08/20 08:29:02;;;;;;;0.10;0.10;;;24.50;99.90;;;;;;8307787;28;20029;-82
2022/08/20 08:37:22;;;;;;;0.00;0.00;;;24.60;99.90;;;;;;8298797;28;20053;-79
2022/08/20 08:41:30;;;;;;;0.08;0.08;;;24.10;99.90;;;;;;8298064;28;20117;-81
2022/08/20 08:45:44;;;;;;;0.10;0.10;;;23.50;99.90;;;;;;8283741;28;20574;-82
2022/08/20 08:49:46;;;;;;;0.00;0.00;;;23.00;99.90;;;;;;8304759;28;20068;-82
2022/08/20 08:53:53;;;;;;;0.10;0.10;;;23.30;99.90;;;;;;8281996;28;20034;-81
2022/08/20 08:57:58;;;;;;;0.00;0.00;;;24.40;99.90;;;;;;8297139;28;20049;-81
2022/08/20 09:02:01;;;;;;;0.00;0.00;;;25.50;99.90;;;;;;8301260;28;20025;-80
2022/08/20 09:06:02;;;;;;;0.20;0.20;;;26.30;99.90;;;;;;8284182;28;20029;-81
2022/08/20 09:10:03;;;;;;;0.45;0.45;;;26.50;99.90;;;;;;8304350;28;20573;-80
2022/08/20 09:14:03;;;;;;;0.10;0.10;;;26.90;99.90;;;;;;8314976;28;20415;-81
2022/08/20 09:18:04;;;;;;;0.63;0.57;;;26.50;99.90;;;;;;8318598;28;20028;-81
2022/08/20 09:22:13;;;;;;;0.13;0.13;;;25.50;99.90;;;;;;8301460;28;20033;-80
2022/08/20 09:26:13;;;;;;;0.10;0.10;;;24.50;99.90;;;;;;8316534;28;20057;-81
2022/08/20 09:30:14;;;;;;;0.10;0.10;;;23.20;99.90;;;;;;8307065;28;20729;-80
2022/08/20 09:34:15;;;;;;;0.20;0.20;;;22.40;99.90;;;;;;8322854;28;20029;-80
2022/08/20 09:38:15;;;;;;;0.00;0.00;;;22.00;99.90;;;;;;8298944;28;20025;-80
2022/08/20 09:42:23;;;;;;;0.40;0.40;;;21.60;99.90;;;;;;8322827;28;20075;-80
2022/08/20 09:46:25;;;;;;;0.63;0.47;;;21.20;99.90;;;;;;8326586;28;20125;-79
2022/08/20 09:50:28;;;;;;;0.10;0.10;;;20.80;99.90;;;;;;8318678;28;20085;-81
2022/08/20 09:54:32;;;;;;;0.52;0.52;;;20.70;99.90;;;;;;8301696;28;20037;-81
2022/08/20 09:58:37;;;;;;;0.10;0.10;;;20.40;99.90;;;;;;8313178;28;20033;-80
2022/08/20 10:02:38;;;;;;;0.10;0.10;;;19.90;99.90;;;;;;8323661;28;20021;-81
2022/08/20 10:06:40;;;;;;;0.10;0.10;;;19.70;99.90;;;;;;8301662;28;20068;-83
2022/08/20 10:10:40;;;;;;;0.13;0.13;;;19.70;99.90;;;;;;8298161;28;20025;-83
2022/08/20 10:14:41;;;;;;;0.10;0.10;;;19.80;99.90;;;;;;8317764;28;20576;-83
2022/08/20 10:18:41;;;;;;;0.10;0.10;;;20.00;99.90;;;;;;8317654;28;20179;-83
2022/08/20 10:22:42;;;;;;;0.10;0.10;;;20.30;99.90;;;;;;8319058;28;20041;-82
2022/08/20 10:26:43;;;;;;;0.20;0.20;;;20.60;99.90;;;;;;8300826;28;20068;-83
2022/08/20 10:30:44;;;;;;;0.10;0.10;;;20.90;99.90;;;;;;8294364;28;20029;-83
2022/08/20 10:34:45;;;;;;;0.15;0.15;;;21.30;99.90;;;;;;8317346;28;20040;-82
2022/08/20 10:38:47;;;;;;;0.10;0.10;;;21.60;99.90;;;;;;8295836;28;20414;-83
2022/08/20 10:42:48;;;;;;;0.08;0.08;;;21.90;99.90;;;;;;8304999;28;20102;-84
2022/08/20 10:46:48;;;;;;;1.27;1.27;;;21.90;99.90;;;;;;8311003;28;20310;-83
2022/08/20 10:50:53;;;;;;;0.10;0.10;;;22.10;99.90;;;;;;8310338;28;20030;-83
2022/08/20 10:54:54;;;;;;;0.10;0.10;;;21.70;99.90;;;;;;8293630;28;20105;-83
2022/08/20 10:58:54;;;;;;;0.08;0.08;;;21.20;99.90;;;;;;8279500;28;20659;-82
2022/08/20 11:02:55;;;;;;;0.10;0.10;;;20.90;99.90;;;;;;8293683;28;20067;-82
2022/08/20 11:06:55;;;;;;;0.10;0.10;;;20.70;99.90;;;;;;8304904;28;20446;-84
2022/08/20 11:10:56;;;;;;;0.00;0.00;;;20.80;99.90;;;;;;8313389;28;20083;-84
2022/08/20 11:14:56;;;;;;;0.45;0.45;;;21.10;99.90;;;;;;8298923;28;20029;-82
2022/08/20 11:18:57;;;;;;;0.10;0.10;;;21.30;99.90;;;;;;8286325;28;20097;-83
2022/08/20 11:22:58;;;;;;;0.10;0.10;;;21.50;99.90;;;;;;8307812;28;20053;-84
2022/08/20 11:26:59;;;;;;;0.10;0.10;;;21.90;99.90;;;;;;8288692;28;20038;-84
2022/08/20 11:31:00;;;;;;;0.28;0.28;;;22.00;99.90;;;;;;8290321;28;20026;-84
2022/08/20 11:35:04;;;;;;;0.05;0.05;;;22.30;99.90;;;;;;8289165;28;20037;-85
2022/08/20 11:39:05;;;;;;;0.00;0.00;;;22.30;99.90;;;;;;8283844;28;20116;-84
2022/08/20 11:43:05;;;;;;;0.00;0.00;;;22.20;99.90;;;;;;8284759;28;20372;-84
2022/08/20 11:47:07;;;;;;;0.10;0.10;;;21.70;99.90;;;;;;8289154;28;20093;-81
2022/08/20 11:51:07;;;;;;;0.10;0.10;;;21.30;99.90;;;;;;8302239;28;20021;-83
2022/08/20 11:55:10;;;;;;;0.10;0.10;;;20.90;99.90;;;;;;8293806;28;20064;-83
2022/08/20 11:59:11;;;;;;;0.00;0.00;;;20.60;99.90;;;;;;8302443;28;20067;-83
2022/08/20 12:03:12;;;;;;;0.10;0.10;;;20.50;99.90;;;;;;8283141;28;20018;-82
2022/08/20 12:07:15;;;;;;;0.10;0.10;;;20.50;99.90;;;;;;8295560;28;20022;-83
2022/08/20 12:11:16;;;;;;;0.10;0.10;;;20.40;99.90;;;;;;8295516;28;20566;-83
2022/08/20 12:15:16;;;;;;;0.10;0.10;;;21.00;99.90;;;;;;8313278;28;20030;-83
2022/08/20 12:19:17;;;;;;;0.20;0.20;;;21.30;99.90;;;;;;8317975;28;20018;-84
2022/08/20 12:23:18;;;;;;;0.10;0.10;;;21.00;99.90;;;;;;8311439;28;20491;-83
2022/08/20 12:27:23;;;;;;;0.20;0.20;;;20.70;99.90;;;;;;8310782;28;20033;-84
2022/08/20 12:31:24;;;;;;;0.10;0.10;;;20.60;99.90;;;;;;8295777;28;20041;-83
2022/08/20 12:35:25;;;;;;;0.10;0.10;;;20.90;99.90;;;;;;8326873;23;20046;-80
2022/08/20 12:39:30;;;;;;;0.10;0.10;;;21.10;99.90;;;;;;8277021;28;20025;-81
2022/08/20 12:43:30;;;;;;;0.10;0.10;;;20.60;99.90;;;;;;8270663;28;20513;-83
2022/08/20 12:47:34;;;;;;;0.10;0.10;;;20.50;99.90;;;;;;8295311;28;20092;-81
2022/08/20 12:51:35;;;;;;;0.03;0.03;;;20.90;99.90;;;;;;8306322;28;20037;-81
2022/08/20 12:55:35;;;;;;;0.10;0.10;;;21.60;99.90;;;;;;8270937;28;20400;-80
2022/08/20 12:59:36;;;;;;;0.10;0.10;;;21.70;99.90;;;;;;8275468;28;20407;-80
2022/08/20 13:03:36;;;;;;;0.10;0.10;;;21.60;99.90;;;;;;8293155;28;20065;-80
2022/08/20 13:07:38;;;;;;;0.10;0.10;;;21.70;99.90;;;;;;8273712;28;20030;-78
2022/08/20 13:11:38;;;;;;;0.00;0.00;;;23.70;99.90;;;;;;8295720;28;20029;-78
2022/08/20 13:15:39;;;;;;;0.25;0.25;;;24.60;99.90;;;;;;8282577;28;20030;-78
2022/08/20 13:19:40;;;;;;;0.05;0.05;;;26.40;99.90;;;;;;8291747;28;20419;-78
2022/08/20 13:23:41;;;;;;;0.10;0.10;;;27.10;99.90;;;;;;8307595;28;20025;-79
2022/08/20 13:27:42;;;;;;;0.10;0.10;;;27.30;99.90;;;;;;8312416;28;20030;-77
2022/08/20 13:31:42;;;;;;;0.10;0.10;;;28.20;99.90;;;;;;8293845;28;20022;-78
2022/08/20 13:35:43;;;;;;;0.00;0.00;;;29.70;99.90;;;;;;8281679;28;20042;-79
2022/08/20 13:39:44;;;;;;;0.10;0.10;;;31.10;98.70;;;;;;8280973;28;20405;-78
2022/08/20 13:43:44;;;;;;;0.10;0.10;;;28.60;99.90;;;;;;8275619;28;20036;-79
2022/08/20 13:47:45;;;;;;;0.10;0.10;;;26.10;99.90;;;;;;8274721;28;20034;-77
2022/08/20 13:51:45;;;;;;;0.10;0.10;;;24.80;99.90;;;;;;8272634;28;20124;-77
2022/08/20 13:55:46;;;;;;;0.00;0.00;;;23.80;99.90;;;;;;8276520;28;20392;-77
2022/08/20 13:59:49;;;;;;;0.10;0.10;;;23.50;99.90;;;;;;8272777;28;20037;-78
2022/08/20 14:03:49;;;;;;;0.10;0.10;;;23.50;99.90;;;;;;8275740;28;20018;-77
2022/08/20 14:07:50;;;;;;;0.00;0.00;;;23.60;99.90;;;;;;8272701;28;20061;-78
2022/08/20 14:11:50;;;;;;;0.05;0.05;;;23.60;99.90;;;;;;8273620;28;20101;-78
2022/08/20 14:15:51;;;;;;;0.00;0.00;;;23.40;99.90;;;;;;8269135;28;20053;-78
2022/08/20 14:19:58;;;;;;;0.10;0.10;;;23.60;99.90;;;;;;8276371;28;20033;-78
2022/08/20 14:24:00;;;;;;;0.20;0.20;;;23.50;99.90;;;;;;8279030;28;20449;-78
2022/08/20 14:28:13;;;;;;;0.20;0.20;;;23.50;99.90;;;;;;8274186;28;20050;-77
2022/08/20 14:32:15;;;;;;;0.10;0.10;;;23.30;99.90;;;;;;8269809;28;20018;-79
2022/08/20 14:36:15;;;;;;;0.10;0.10;;;23.00;99.90;;;;;;8275875;28;20038;-76
2022/08/20 14:40:17;;;;;;;0.20;0.20;;;22.10;99.90;;;;;;8276778;28;20034;-78
2022/08/20 14:44:17;;;;;;;0.10;0.10;;;21.50;99.90;;;;;;8266383;28;20405;-77
2022/08/20 14:48:18;;;;;;;0.10;0.10;;;21.50;99.90;;;;;;8262562;28;20068;-79
2022/08/20 14:52:21;;;;;;;0.10;0.10;;;21.60;99.90;;;;;;8256136;28;20044;-77
2022/08/20 14:56:21;;;;;;;0.10;0.10;;;21.60;99.90;;;;;;8262731;28;20062;-76
2022/08/20 15:00:28;;;;;;;0.10;0.10;;;21.30;99.90;;;;;;8258439;28;20833;-77
2022/08/20 15:04:28;;;;;;;0.10;0.10;;;21.20;99.90;;;;;;8251503;28;20039;-77
2022/08/20 15:08:30;;;;;;;0.10;0.10;;;21.20;99.90;;;;;;8244725;28;20041;-77
2022/08/20 15:12:34;;;;;;;0.00;0.00;;;21.00;99.90;;;;;;8245699;28;20030;-78
2022/08/20 15:16:34;;;;;;;0.10;0.10;;;21.20;99.90;;;;;;8250661;28;20037;-76
2022/08/20 15:20:37;;;;;;;0.10;0.10;;;21.30;99.90;;;;;;8260248;28;20042;-77
2022/08/20 15:24:37;;;;;;;0.10;0.10;;;21.30;99.90;;;;;;8275170;28;20098;-78
2022/08/20 15:28:38;;;;;;;0.08;0.08;;;21.10;99.90;;;;;;8274915;28;20037;-78
2022/08/20 15:32:38;;;;;;;0.00;0.00;;;21.30;99.90;;;;;;8270994;28;20437;-78
2022/08/20 15:36:39;;;;;;;0.10;0.10;;;21.20;99.90;;;;;;8271376;28;20029;-78
2022/08/20 15:40:39;;;;;;;0.10;0.10;;;21.20;99.90;;;;;;8248277;28;20037;-78
2022/08/20 15:44:41;;;;;;;1.30;0.55;;;21.80;99.90;;;;;;8261787;28;20069;-78
2022/08/20 15:48:45;;;;;;;0.10;0.10;;;23.00;99.90;;;;;;8270811;28;20026;-78
2022/08/20 15:52:46;;;;;;;0.00;0.00;;;23.70;99.90;;;;;;8260301;28;20050;-77
2022/08/20 15:57:05;;;;;;;0.10;0.10;;;23.50;99.90;;;;;;8278429;28;20045;-78
2022/08/20 16:01:31;;;;;;;0.10;0.10;;;23.60;99.90;;;;;;8267344;28;20040;-77
2022/08/20 16:05:54;;;;;;;0.10;0.10;;;23.70;99.90;;;;;;8267783;28;20053;-77
2022/08/20 16:10:14;;;;;;;0.10;0.10;;;23.50;99.90;;;;;;8268839;28;20022;-78
2022/08/20 16:14:25;;;;;;;0.10;0.10;;;23.80;99.90;;;;;;8280139;28;20447;-77
2022/08/20 16:18:33;;;;;;;0.10;0.10;;;23.60;99.90;;;;;;8267063;28;20501;-79
2022/08/20 16:22:39;;;;;;;0.10;0.10;;;23.30;99.90;;;;;;8264496;28;20600;-79
2022/08/20 16:27:00;;;;;;;0.10;0.10;;;23.10;99.90;;;;;;8263922;28;20038;-78
2022/08/20 16:31:02;;;;;;;;;;;22.90;99.90;;;;;;8264017;28;20706;-78
2022/08/20 16:35:36;;;;;;;0.10;0.10;;;22.70;99.90;;;;;;8268176;28;19913;-76
2022/08/20 16:39:47;;;;;;;0.10;0.10;;;22.50;99.90;;;;;;8267666;28;20559;-78
2022/08/20 16:43:51;;;;;;;0.10;0.10;;;22.10;99.90;;;;;;8274047;28;20101;-77
2022/08/20 16:47:55;;;;;;;0.10;0.10;;;21.80;99.90;;;;;;8265830;28;20046;-78
2022/08/20 16:51:58;;;;;;;0.10;0.10;;;21.80;99.90;;;;;;8257383;28;20232;-77
2022/08/20 16:55:59;;;;;;;0.10;0.10;;;21.70;99.90;;;;;;8257281;28;20408;-78
2022/08/20 17:00:28;;;;;;;0.00;0.00;;;21.50;99.90;;;;;;8249688;28;20030;-76
2022/08/20 17:04:28;;;;;;;0.10;0.10;;;21.40;99.90;;;;;;8251793;28;20507;-78
2022/08/20 17:08:31;;;;;;;0.00;0.00;;;21.20;99.90;;;;;;8248260;28;20073;-77
2022/08/20 17:12:32;;;;;;;0.10;0.10;;;21.00;99.90;;;;;;8249643;28;20195;-77
2022/08/20 17:16:39;;;;;;;0.10;0.10;;;20.90;99.90;;;;;;8253055;28;20030;-77
2022/08/20 17:20:43;;;;;;;0.10;0.10;;;21.00;99.90;;;;;;8272485;28;20533;-77
2022/08/20 17:24:44;;;;;;;0.10;0.10;;;21.00;99.90;;;;;;8269604;28;20085;-77
2022/08/20 17:28:54;;;;;;;0.10;0.10;;;21.20;99.90;;;;;;8267660;28;20040;-77
2022/08/20 17:33:01;;;;;;;0.10;0.10;;;21.10;99.90;;;;;;8259751;28;20034;-77
2022/08/20 17:37:09;;;;;;;0.10;0.10;;;21.20;99.90;;;;;;8269110;28;20114;-76
2022/08/20 17:41:16;;;;;;;0.10;0.10;;;21.00;99.90;;;;;;8264131;28;20026;-77
2022/08/20 17:45:23;;;;;;;0.10;0.10;;;20.80;99.90;;;;;;8263272;28;20503;-77
2022/08/20 17:49:38;;;;;;;0.10;0.10;;;20.60;99.90;;;;;;8274322;28;20027;-77
2022/08/20 17:53:41;;;;;;;0.00;0.00;;;20.30;99.90;;;;;;8274315;28;20425;-77
2022/08/20 17:57:45;;;;;;;0.10;0.10;;;20.10;99.90;;;;;;8277296;28;20249;-78
2022/08/20 18:01:45;;;;;;;0.05;0.05;;;19.90;99.90;;;;;;8274663;28;20034;-78
2022/08/20 18:05:55;;;;;;;0.10;0.10;;;19.70;99.90;;;;;;8277052;28;20211;-76
2022/08/20 18:10:13;;;;;;;0.10;0.10;;;19.60;99.90;;;;;;8284193;28;20077;-77
2022/08/20 18:14:38;;;;;;;0.10;0.10;;;19.40;99.90;;;;;;8273153;28;20022;-77
2022/08/20 18:18:51;;;;;;;2.65;1.30;;;19.20;99.90;;;;;;8273494;28;20038;-77
2022/08/20 18:22:57;;;;;;;3.35;1.40;;;18.90;99.90;;;;;;8276125;28;20452;-78
2022/08/20 18:27:03;;;;;;;1.70;1.60;;;18.50;99.90;;;;;;8273841;28;20030;-76
2022/08/20 18:31:06;;;;;;;1.80;1.48;;;18.30;99.90;;;;;;8279934;28;20037;-77
2022/08/20 18:35:20;;;;;;;2.78;1.70;;;18.00;99.90;;;;;;8278369;28;20061;-77
2022/08/20 18:39:27;;;;;;;3.05;1.85;;;17.70;99.90;;;;;;8288137;28;20029;-77
2022/08/20 18:43:30;;;;;;;1.98;1.77;;;17.50;99.90;;;;;;8276732;28;20030;-77
2022/08/20 18:47:33;;;;;;;2.50;1.70;;;17.30;99.90;;;;;;8284958;28;20091;-78
2022/08/20 18:51:39;;;;;;;3.00;2.20;;;17.40;99.90;;;;;;8279612;28;20460;-78
2022/08/20 18:55:43;;;;;;;2.33;2.00;;;17.30;99.90;;;;;;8271371;28;20034;-77
2022/08/20 18:59:49;;;;;;;2.08;1.88;;;17.20;99.90;;;;;;8279896;28;20380;-77
2022/08/20 19:03:53;;;;;;;3.40;2.15;;;17.00;99.90;;;;;;8272714;28;20101;-78
2022/08/20 19:07:56;;;;;;;4.53;2.20;;;16.90;99.90;;;;;;8274992;28;20026;-77
2022/08/20 19:12:24;;;;;;;2.80;2.17;;;16.70;99.90;;;;;;8274179;28;20026;-78
2022/08/20 19:16:36;;;;;;;2.97;2.30;;;16.50;99.90;;;;;;8259522;28;20084;-77
2022/08/20 19:20:39;;;;;;;3.35;2.50;;;16.40;99.90;;;;;;8264262;28;20072;-77
2022/08/20 19:24:43;;;;;;;4.10;2.50;;;16.40;99.90;;;;;;8276355;28;20033;-77
2022/08/20 19:28:47;;;;;;;6.47;2.90;;;16.30;99.90;;;;;;8280005;28;20030;-77
2022/08/20 19:32:51;;;;;;;4.55;2.58;;;16.30;99.90;;;;;;8279422;28;20042;-78
2022/08/20 19:37:11;;;;;;;5.13;2.83;;;16.30;99.90;;;;;;8268493;28;20042;-75
2022/08/20 19:41:18;;;;;;;3.20;2.25;;;16.30;99.90;;;;;;8282398;28;20029;-78
2022/08/20 19:45:38;;;;;;;4.30;3.47;;;16.30;99.90;;;;;;8271624;28;20032;-77
2022/08/20 19:49:50;;;;;;;3.90;3.22;;;16.30;99.90;;;;;;8279099;28;20066;-78
2022/08/20 19:53:50;;;;;;;3.72;2.80;;;16.30;99.90;;;;;;8272100;28;20407;-76
2022/08/20 19:57:57;;;;;;;3.83;2.92;;;16.60;99.90;;;;;;8277305;28;20042;-77
2022/08/20 20:02:02;;;;;;;3.45;2.75;;;16.60;99.90;;;;;;8273264;28;20147;-78
2022/08/20 20:06:15;;;;;;;3.58;2.78;;;16.70;99.90;;;;;;8279954;28;20025;-77
2022/08/20 20:10:34;;;;;;;3.63;3.20;;;16.70;99.90;;;;;;8262738;28;20401;-77
2022/08/20 20:14:37;;;;;;;2.90;2.60;;;16.70;99.90;;;;;;8264991;28;20022;-76
2022/08/20 20:18:40;;;;;;;3.90;2.10;;;16.70;99.90;;;;;;8274023;28;20037;-77
2022/08/20 20:22:59;;;;;;;2.42;2.10;;;16.70;99.90;;;;;;8274008;28;20030;-77
2022/08/20 20:27:00;;;;;;;4.28;2.63;;;16.40;99.90;;;;;;8266577;28;20517;-77
2022/08/20 20:31:09;;;;;;;4.13;2.58;;;16.20;99.90;;;;;;8265322;28;20026;-78
2022/08/20 20:35:26;;;;;;;3.67;2.50;;;16.10;99.90;;;;;;8268155;28;20032;-77
2022/08/20 20:39:35;;;;;;;2.47;2.15;;;16.20;99.90;;;;;;8271639;28;20057;-76
2022/08/20 20:43:41;;;;;;;2.70;2.50;;;16.10;99.90;;;;;;8269598;28;20039;-77
2022/08/20 20:47:49;;;;;;;3.20;2.58;;;16.00;99.90;;;;;;8276286;28;20033;-77
2022/08/20 20:51:58;;;;;;;4.15;2.65;;;15.80;99.90;;;;;;8282648;28;20026;-77
2022/08/20 20:55:59;;;;;;;3.10;2.80;;;15.70;99.90;;;;;;8267432;28;20022;-77
2022/08/20 21:00:00;;;;;;;2.42;2.05;;;15.60;99.90;;;;;;8282929;28;20034;-77
2022/08/20 21:04:01;;;;;;;3.00;2.70;;;15.60;99.90;;;;;;8265637;28;20030;-77
2022/08/20 21:08:04;;;;;;;8.35;4.03;;;15.50;99.90;;;;;;8274735;28;20072;-75
2022/08/20 21:12:07;;;;;;;7.05;5.13;;;15.70;99.90;;;;;;8267523;28;20033;-77
2022/08/20 21:16:07;;;;;;;9.52;5.20;;;15.80;99.90;;;;;;8275459;28;20581;-77
2022/08/20 21:20:09;;;;;;;9.50;5.47;;;15.80;99.90;;;;;;8271012;28;20026;-77